Time;durP1;ratioP1;P1;durP2;ratioP2;P2;SDS_P1;SDS_P2;PMS_P1;PMS_P2;Temp;Humidity;BMP_temperature;BMP_pressure;BME280_temperature;BME280_humidity;BME280_pressure;Samples;Min_cycle;Max_cycle;Signal;HPM_P1;HPM_P2
2021/10/05 00:01:31;;;;;;;;;;;;;;;;;;4955925;29;19929;-82
2021/10/05 00:03:57;;;;;;;;;;;;;;;;;;4957162;29;19918;-80
2021/10/05 00:06:22;;;;;;;;;;;;;;;;;;4957219;29;20386;-82
2021/10/05 00:08:48;;;;;;;;;;;;;;;;;;4957177;29;20423;-81
2021/10/05 00:11:13;;;;;;;;;;;;;;;;;;4957057;29;20379;-81
2021/10/05 00:13:40;;;;;;;;;;;;;;;;;;4957189;29;19918;-82
2021/10/05 00:16:06;;;;;;;;;;;;;;;;;;4957023;28;19918;-81
2021/10/05 00:18:31;;;;;;;;;;;;;;;;;;4957094;29;19923;-82
2021/10/05 00:20:57;;;;;;;;;;;;;;;;;;4956965;29;19919;-82
2021/10/05 00:23:22;;;;;;;;;;;;;;;;;;4956965;29;20054;-84
2021/10/05 00:25:48;;;;;;;;;;;;;;;;;;4956947;29;20363;-82
2021/10/05 00:28:13;;;;;;;;;;;;;;;;;;4956747;29;19919;-80
2021/10/05 00:30:39;;;;;;;;;;;;;;;;;;4956655;29;19919;-80
2021/10/05 00:39:10;;;;;;;;;;;;;;;;;;4956797;29;19945;-85
2021/10/05 00:41:36;;;;;;;;;;;;;;;;;;4956497;29;19922;-82
2021/10/05 00:44:01;;;;;;;;;;;;;;;;;;4956582;29;19929;-79
2021/10/05 00:46:27;;;;;;;;;;;;;;;;;;4956231;29;19919;-81
2021/10/05 00:48:53;;;;;;;;;;;;;;;;;;4959884;29;19961;-82
2021/10/05 00:51:20;;;;;;;;;;;;;;;;;;4958954;29;19919;-82
2021/10/05 00:53:45;;;;;;;;;;;;;;;;;;4945248;29;19919;-81
2021/10/05 00:56:11;;;;;;;;;;;;;;;;;;4937359;29;19925;-81
2021/10/05 00:58:37;;;;;;;;;;;;;;;;;;4937253;29;20018;-81
2021/10/05 01:01:02;;;;;;;;;;;;;;;;;;4937281;29;19958;-81
2021/10/05 01:03:28;;;;;;;;;;;;;;;;;;4937079;29;20381;-81
2021/10/05 01:05:53;;;;;;;;;;;;;;;;;;4937070;29;19938;-80
2021/10/05 01:08:20;;;;;;;;;;;;;;;;;;4937029;29;19919;-82
2021/10/05 01:10:45;;;;;;;;;;;;;;;;;;4936923;29;19919;-83
2021/10/05 01:13:10;;;;;;;;;;;;;;;;;;4936799;29;19922;-81
2021/10/05 01:15:36;;;;;;;;;;;;;;;;;;4936988;29;19958;-80
2021/10/05 01:18:01;;;;;;;;;;;;;;;;;;4936913;29;19923;-82
2021/10/05 01:20:27;;;;;;;;;;;;;;;;;;4936455;29;20306;-82
2021/10/05 01:22:52;;;;;;;;;;;;;;;;;;4936818;29;20290;-81
2021/10/05 01:25:18;;;;;;;;;;;;;;;;;;4936833;29;19958;-81
2021/10/05 01:27:53;;;;;;;;;;;;;;;;;;4936976;29;19918;-82
2021/10/05 01:30:20;;;;;;;;;;;;;;;;;;4936732;29;19919;-81
2021/10/05 01:32:45;;;;;;;;;;;;;;;;;;4936605;29;19918;-81
2021/10/05 01:35:11;;;;;;;;;;;;;;;;;;4936783;29;20447;-80
2021/10/05 01:37:37;;;;;;;;;;;;;;;;;;4936543;29;20327;-81
2021/10/05 01:40:03;;;;;;;;;;;;;;;;;;4936610;29;19918;-81
2021/10/05 01:42:29;;;;;;;;;;;;;;;;;;4919639;29;19966;-81
2021/10/05 01:44:55;;;;;;;;;;;;;;;;;;4936544;29;19919;-81
2021/10/05 01:47:21;;;;;;;;;;;;;;;;;;4936576;29;19923;-80
2021/10/05 01:49:46;;;;;;;;;;;;;;;;;;4936529;29;19919;-81
2021/10/05 01:52:12;;;;;;;;;;;;;;;;;;4936464;29;19950;-81
2021/10/05 01:54:37;;;;;;;;;;;;;;;;;;4936488;29;19962;-81
2021/10/05 01:57:03;;;;;;;;;;;;;;;;;;4936439;29;19919;-80
2021/10/05 01:59:28;;;;;;;;;;;;;;;;;;4936381;29;19919;-81
2021/10/05 02:01:54;;;;;;;;;;;;;;;;;;4936108;29;19945;-81
2021/10/05 02:04:19;;;;;;;;;;;;;;;;;;4936358;29;19954;-81
2021/10/05 02:06:45;;;;;;;;;;;;;;;;;;4936303;29;19914;-83
2021/10/05 02:09:12;;;;;;;;;;;;;;;;;;4936221;29;19918;-81
2021/10/05 02:11:38;;;;;;;;;;;;;;;;;;4936324;29;19926;-81
2021/10/05 02:14:03;;;;;;;;;;;;;;;;;;4936332;29;20295;-81
2021/10/05 02:16:29;;;;;;;;;;;;;;;;;;4936269;29;20353;-81
2021/10/05 02:18:55;;;;;;;;;;;;;;;;;;4936145;29;20283;-80
2021/10/05 02:21:20;;;;;;;;;;;;;;;;;;4936410;29;19919;-81
2021/10/05 02:26:30;;;;;;;;;;;;;;;;;;4936573;29;19925;-80
2021/10/05 02:28:56;;;;;;;;;;;;;;;;;;4936179;29;20006;-81
2021/10/05 02:31:22;;;;;;;;;;;;;;;;;;4934900;29;20335;-80
2021/10/05 02:33:47;;;;;;;;;;;;;;;;;;4935285;29;19919;-83
2021/10/05 02:36:12;;;;;;;;;;;;;;;;;;4936091;29;19923;-80
2021/10/05 02:38:38;;;;;;;;;;;;;;;;;;4937196;29;19926;-81
2021/10/05 02:41:04;;;;;;;;;;;;;;;;;;4939541;29;20013;-82
2021/10/05 02:43:29;;;;;;;;;;;;;;;;;;4939807;29;19919;-82
2021/10/05 02:45:55;;;;;;;;;;;;;;;;;;4938200;29;20394;-82
2021/10/05 02:48:20;;;;;;;;;;;;;;;;;;4939458;29;19918;-82
2021/10/05 02:50:46;;;;;;;;;;;;;;;;;;4939289;29;19919;-80
2021/10/05 02:53:11;;;;;;;;;;;;;;;;;;4939313;29;19930;-81
2021/10/05 02:55:37;;;;;;;;;;;;;;;;;;4939187;29;19925;-80
2021/10/05 02:58:02;;;;;;;;;;;;;;;;;;4939267;29;19966;-81
2021/10/05 03:00:28;;;;;;;;;;;;;;;;;;4939023;29;19967;-81
2021/10/05 03:02:53;;;;;;;;;;;;;;;;;;4939279;29;19933;-80
2021/10/05 03:05:19;;;;;;;;;;;;;;;;;;4939156;29;19923;-80
2021/10/05 03:07:44;;;;;;;;;;;;;;;;;;4939158;29;19922;-81
2021/10/05 03:10:10;;;;;;;;;;;;;;;;;;4939128;29;19919;-80
2021/10/05 03:12:35;;;;;;;;;;;;;;;;;;4939015;29;20017;-81
2021/10/05 03:15:01;;;;;;;;;;;;;;;;;;4939032;29;19918;-80
2021/10/05 03:17:26;;;;;;;;;;;;;;;;;;4938942;29;19919;-81
2021/10/05 03:19:51;;;;;;;;;;;;;;;;;;4938990;29;19965;-80
2021/10/05 03:22:17;;;;;;;;;;;;;;;;;;4938922;29;20291;-80
2021/10/05 03:24:42;;;;;;;;;;;;;;;;;;4939164;29;20005;-79
2021/10/05 03:27:10;;;;;;;;;;;;;;;;;;4938908;29;19919;-79
2021/10/05 03:29:36;;;;;;;;;;;;;;;;;;4938699;29;19918;-81
2021/10/05 03:32:01;;;;;;;;;;;;;;;;;;4937397;29;19918;-80
2021/10/05 03:34:27;;;;;;;;;;;;;;;;;;4938615;29;19919;-81
2021/10/05 03:36:52;;;;;;;;;;;;;;;;;;4938693;29;19919;-80
2021/10/05 03:39:18;;;;;;;;;;;;;;;;;;4938478;29;19919;-81
2021/10/05 03:41:44;;;;;;;;;;;;;;;;;;4937236;29;20339;-82
2021/10/05 03:44:09;;;;;;;;;;;;;;;;;;4938754;29;19982;-81
2021/10/05 03:46:35;;;;;;;;;;;;;;;;;;4938451;29;19925;-80
2021/10/05 03:49:00;;;;;;;;;;;;;;;;;;4938081;29;19942;-81
2021/10/05 03:51:26;;;;;;;;;;;;;;;;;;4938347;29;19919;-80
2021/10/05 03:53:51;;;;;;;;;;;;;;;;;;4938339;29;19977;-80
2021/10/05 03:56:17;;;;;;;;;;;;;;;;;;4939004;29;19946;-80
2021/10/05 03:58:42;;;;;;;;;;;;;;;;;;4938767;29;19926;-79
2021/10/05 04:01:08;;;;;;;;;;;;;;;;;;4936672;29;19923;-79
2021/10/05 04:03:33;;;;;;;;;;;;;;;;;;4938210;29;19926;-79
2021/10/05 04:06:01;;;;;;;;;;;;;;;;;;4938512;29;19915;-79
2021/10/05 04:08:28;;;;;;;;;;;;;;;;;;4938752;29;19919;-79
2021/10/05 04:10:53;;;;;;;;;;;;;;;;;;4937485;29;19918;-79
2021/10/05 04:13:19;;;;;;;;;;;;;;;;;;4938587;29;19919;-79
2021/10/05 04:15:44;;;;;;;;;;;;;;;;;;4937906;29;19919;-80
2021/10/05 04:18:10;;;;;;;;;;;;;;;;;;4936757;29;20019;-80
2021/10/05 04:20:35;;;;;;;;;;;;;;;;;;4937679;29;20279;-79
2021/10/05 04:23:01;;;;;;;;;;;;;;;;;;4938035;29;19919;-79
2021/10/05 04:25:26;;;;;;;;;;;;;;;;;;4937840;29;19919;-79
2021/10/05 04:27:52;;;;;;;;;;;;;;;;;;4937723;29;19922;-79
2021/10/05 04:30:18;;;;;;;;;;;;;;;;;;4937684;29;19925;-79
2021/10/05 04:32:43;;;;;;;;;;;;;;;;;;4937827;29;19919;-80
2021/10/05 04:35:09;;;;;;;;;;;;;;;;;;4937594;29;20376;-80
2021/10/05 04:37:34;;;;;;;;;;;;;;;;;;4937451;29;19918;-81
2021/10/05 04:40:00;;;;;;;;;;;;;;;;;;4937524;29;19919;-80
2021/10/05 04:42:25;;;;;;;;;;;;;;;;;;4937532;29;20387;-80
2021/10/05 04:44:51;;;;;;;;;;;;;;;;;;4937574;29;20002;-81
2021/10/05 04:47:17;;;;;;;;;;;;;;;;;;4937459;29;19919;-80
2021/10/05 04:49:42;;;;;;;;;;;;;;;;;;4937372;29;19926;-80
2021/10/05 04:52:08;;;;;;;;;;;;;;;;;;4938617;29;20366;-80
2021/10/05 04:54:33;;;;;;;;;;;;;;;;;;4949877;29;19903;-80
2021/10/05 04:56:59;;;;;;;;;;;;;;;;;;4949081;29;19919;-80
2021/10/05 04:59:24;;;;;;;;;;;;;;;;;;4941655;29;19919;-81
2021/10/05 05:01:50;;;;;;;;;;;;;;;;;;4936615;29;19923;-80
2021/10/05 05:04:18;;;;;;;;;;;;;;;;;;4937357;29;20323;-81
2021/10/05 05:06:43;;;;;;;;;;;;;;;;;;4937203;29;19915;-81
2021/10/05 05:09:09;;;;;;;;;;;;;;;;;;4937043;29;19925;-81
2021/10/05 05:11:34;;;;;;;;;;;;;;;;;;4936959;29;19926;-80
2021/10/05 05:14:07;;;;;;;;;;;;;;;;;;4937000;29;20322;-80
2021/10/05 05:16:34;;;;;;;;;;;;;;;;;;4936898;29;19919;-81
2021/10/05 05:19:00;;;;;;;;;;;;;;;;;;4936899;29;19922;-91
2021/10/05 05:21:26;;;;;;;;;;;;;;;;;;4920052;29;19919;-91
2021/10/05 05:23:54;;;;;;;;;;;;;;;;;;4943470;29;20193;-88
2021/10/05 05:26:19;;;;;;;;;;;;;;;;;;4947434;29;19919;-88
2021/10/05 05:28:45;;;;;;;;;;;;;;;;;;4943400;29;20344;-88
2021/10/05 05:31:10;;;;;;;;;;;;;;;;;;4935279;29;19919;-89
2021/10/05 05:33:36;;;;;;;;;;;;;;;;;;4936779;29;19926;-90
2021/10/05 05:36:01;;;;;;;;;;;;;;;;;;4935612;29;19923;-88
2021/10/05 05:38:27;;;;;;;;;;;;;;;;;;4919589;29;19967;-90
2021/10/05 05:40:53;;;;;;;;;;;;;;;;;;4936839;29;19923;-87
2021/10/05 05:43:19;;;;;;;;;;;;;;;;;;4936589;29;19919;-90
2021/10/05 05:45:44;;;;;;;;;;;;;;;;;;4935551;29;19926;-86
2021/10/05 05:48:10;;;;;;;;;;;;;;;;;;4936663;29;20028;-86
2021/10/05 05:50:35;;;;;;;;;;;;;;;;;;4936657;29;19941;-88
2021/10/05 05:53:01;;;;;;;;;;;;;;;;;;4936557;29;19918;-89
2021/10/05 05:55:26;;;;;;;;;;;;;;;;;;4935345;29;20005;-89
2021/10/05 05:57:52;;;;;;;;;;;;;;;;;;4936555;29;19923;-88
2021/10/05 06:00:18;;;;;;;;;;;;;;;;;;4935336;29;19925;-88
2021/10/05 06:02:44;;;;;;;;;;;;;;;;;;4936942;29;20010;-87
2021/10/05 06:05:09;;;;;;;;;;;;;;;;;;4935174;29;19973;-84
2021/10/05 06:07:35;;;;;;;;;;;;;;;;;;4936400;29;19925;-85
2021/10/05 06:10:00;;;;;;;;;;;;;;;;;;4936329;29;19919;-83
2021/10/05 06:12:37;;;;;;;;;;;;;;;;;;4937406;29;19923;-82
2021/10/05 13:32:04;;;;;;;;;;;;;;;;;;4927581;27;6576070;-88
2021/10/05 13:34:29;;;;;;;;;;;;;;;;;;5153975;27;19920;-89
2021/10/05 13:36:55;;;;;;;;;;;;;;;;;;5154617;27;19916;-89
2021/10/05 13:39:21;;;;;;;;;;;;;;;;;;5153967;27;20378;-88
2021/10/05 13:41:47;;;;;;;;;;;;;;;;;;5153695;27;19915;-89
2021/10/05 13:44:13;;;;;;;;;;;;;;;;;;5153480;27;20285;-90
2021/10/05 13:46:44;;;;;;;;;;;;;;;;;;5153428;27;19922;-89
2021/10/05 13:49:10;;;;;;;;;;;;;;;;;;5152703;27;19941;-88
2021/10/05 13:51:35;;;;;;;;;;;;;;;;;;5151692;27;19915;-89
2021/10/05 13:54:01;;;;;;;;;;;;;;;;;;5152574;27;20408;-88
2021/10/05 13:56:27;;;;;;;;;;;;;;;;;;5153570;27;19916;-88
2021/10/05 13:58:53;;;;;;;;;;;;;;;;;;5152615;27;20010;-88
2021/10/05 14:01:19;;;;;;;;;;;;;;;;;;5152758;27;19950;-90
2021/10/05 14:03:44;;;;;;;;;;;;;;;;;;5152514;27;19915;-88
2021/10/05 14:06:12;;;;;;;;;;;;;;;;;;5152782;27;19964;-88
2021/10/05 14:08:37;;;;;;;;;;;;;;;;;;5152561;27;19915;-87
2021/10/05 14:11:03;;;;;;;;;;;;;;;;;;5151339;27;19919;-87
2021/10/05 14:13:28;;;;;;;;;;;;;;;;;;5151321;27;19916;-88
2021/10/05 14:15:54;;;;;;;;;;;;;;;;;;5152682;27;19919;-89
2021/10/05 14:18:19;;;;;;;;;;;;;;;;;;5152358;27;19938;-88
2021/10/05 14:20:48;;;;;;;;;;;;;;;;;;5151091;27;19915;-88
2021/10/05 14:23:13;;;;;;;;;;;;;;;;;;5151237;27;20053;-88
2021/10/05 14:25:38;;;;;;;;;;;;;;;;;;5152493;27;20009;-88
2021/10/05 14:28:04;;;;;;;;;;;;;;;;;;5152249;27;19923;-88
2021/10/05 14:30:30;;;;;;;;;;;;;;;;;;5152087;27;19926;-88
2021/10/05 14:32:55;;;;;;;;;;;;;;;;;;5137839;27;19938;-88
2021/10/05 14:35:20;;;;;;;;;;;;;;;;;;5138438;27;19922;-88
2021/10/05 14:37:46;;;;;;;;;;;;;;;;;;5137548;27;19922;-88
2021/10/05 14:40:11;;;;;;;;;;;;;;;;;;5138355;27;19922;-87
2021/10/05 14:42:37;;;;;;;;;;;;;;;;;;5137240;27;19915;-86
2021/10/05 14:45:03;;;;;;;;;;;;;;;;;;5138374;27;20377;-87
2021/10/05 14:47:32;;;;;;;;;;;;;;;;;;5140865;27;19915;-89
2021/10/05 14:49:57;;;;;;;;;;;;;;;;;;5140190;27;19923;-87
2021/10/05 14:52:23;;;;;;;;;;;;;;;;;;5136395;27;19916;-88
2021/10/05 14:54:49;;;;;;;;;;;;;;;;;;5139282;27;19915;-89
2021/10/05 14:57:14;;;;;;;;;;;;;;;;;;5139156;27;19926;-89
2021/10/05 14:59:40;;;;;;;;;;;;;;;;;;5137529;27;19916;-89
2021/10/05 15:02:05;;;;;;;;;;;;;;;;;;5137875;27;19916;-82
2021/10/05 15:04:30;;;;;;;;;;;;;;;;;;5138479;27;20432;-86
2021/10/05 15:06:56;;;;;;;;;;;;;;;;;;5137637;27;19915;-87
2021/10/05 15:09:21;;;;;;;;;;;;;;;;;;5138306;27;19955;-87
2021/10/05 15:11:47;;;;;;;;;;;;;;;;;;5136289;27;19915;-87
2021/10/05 15:14:12;;;;;;;;;;;;;;;;;;5136732;27;19916;-86
2021/10/05 15:16:38;;;;;;;;;;;;;;;;;;5138537;27;20066;-83
2021/10/05 15:19:03;;;;;;;;;;;;;;;;;;5138467;27;19940;-87
2021/10/05 15:21:29;;;;;;;;;;;;;;;;;;5137985;27;19915;-89
2021/10/05 15:23:55;;;;;;;;;;;;;;;;;;5138794;27;20411;-88
2021/10/05 15:26:20;;;;;;;;;;;;;;;;;;5135771;27;19937;-84
2021/10/05 15:28:46;;;;;;;;;;;;;;;;;;5137613;27;19915;-86
2021/10/05 15:31:12;;;;;;;;;;;;;;;;;;5138112;27;20436;-86
2021/10/05 15:33:37;;;;;;;;;;;;;;;;;;5136042;27;19959;-85
2021/10/05 15:36:03;;;;;;;;;;;;;;;;;;5138004;27;20424;-89
2021/10/05 15:38:28;;;;;;;;;;;;;;;;;;5138036;27;19916;-86
2021/10/05 15:40:54;;;;;;;;;;;;;;;;;;5139562;27;19953;-86
2021/10/05 15:43:19;;;;;;;;;;;;;;;;;;5137854;27;19922;-87
2021/10/05 15:45:49;;;;;;;;;;;;;;;;;;5138811;27;19934;-86
2021/10/05 15:48:18;;;;;;;;;;;;;;;;;;5137991;27;20317;-85
2021/10/05 15:51:00;;;;;;;;;;;;;;;;;;5138624;27;19940;-85
2021/10/05 15:53:27;;;;;;;;;;;;;;;;;;5136097;27;19919;-86
2021/10/05 15:55:53;;;;;;;;;;;;;;;;;;5135474;27;20429;-84
2021/10/05 15:58:19;;;;;;;;;;;;;;;;;;5135475;27;19984;-85
2021/10/05 16:00:45;;;;;;;;;;;;;;;;;;5138362;27;20358;-84
2021/10/05 16:03:10;;;;;;;;;;;;;;;;;;5136622;27;19922;-85
2021/10/05 16:05:36;;;;;;;;;;;;;;;;;;5134998;27;19915;-83
2021/10/05 16:08:02;;;;;;;;;;;;;;;;;;5134899;27;19915;-84
2021/10/05 16:10:28;;;;;;;;;;;;;;;;;;5136299;27;20019;-83
2021/10/05 16:12:54;;;;;;;;;;;;;;;;;;5136685;27;20354;-85
2021/10/05 16:15:21;;;;;;;;;;;;;;;;;;5136579;27;20404;-84
2021/10/05 16:17:47;;;;;;;;;;;;;;;;;;5136727;27;19916;-85
2021/10/05 16:20:13;;;;;;;;;;;;;;;;;;5136192;27;20353;-84
2021/10/05 16:22:39;;;;;;;;;;;;;;;;;;5136209;27;20022;-84
2021/10/05 16:25:05;;;;;;;;;;;;;;;;;;5136586;27;20004;-85
2021/10/05 16:27:31;;;;;;;;;;;;;;;;;;5136400;27;20072;-85
2021/10/05 16:29:56;;;;;;;;;;;;;;;;;;5135941;27;19957;-83
2021/10/05 16:32:23;;;;;;;;;;;;;;;;;;5135238;27;20336;-81
2021/10/05 16:34:48;;;;;;;;;;;;;;;;;;5136348;27;19922;-85
2021/10/05 16:37:14;;;;;;;;;;;;;;;;;;5137048;27;19920;-84
2021/10/05 16:39:39;;;;;;;;;;;;;;;;;;5134644;27;19922;-84
2021/10/05 16:42:05;;;;;;;;;;;;;;;;;;5136310;27;20308;-84
2021/10/05 16:44:31;;;;;;;;;;;;;;;;;;5135971;27;20332;-83
2021/10/05 16:46:59;;;;;;;;;;;;;;;;;;5136096;27;19923;-84
2021/10/05 16:49:25;;;;;;;;;;;;;;;;;;5135725;27;19926;-80
2021/10/05 16:51:51;;;;;;;;;;;;;;;;;;5135088;27;19919;-84
2021/10/05 16:54:17;;;;;;;;;;;;;;;;;;5135201;27;20014;-85
2021/10/05 16:56:42;;;;;;;;;;;;;;;;;;5134209;27;19968;-86
2021/10/05 16:59:08;;;;;;;;;;;;;;;;;;5134442;27;19916;-85
2021/10/05 17:01:35;;;;;;;;;;;;;;;;;;5135523;27;19927;-79
2021/10/05 17:04:01;;;;;;;;;;;;;;;;;;5134391;27;19916;-85
2021/10/05 17:06:26;;;;;;;;;;;;;;;;;;5134343;27;20385;-84
2021/10/05 17:08:52;;;;;;;;;;;;;;;;;;5136019;27;19916;-84
2021/10/05 17:11:17;;;;;;;;;;;;;;;;;;5135678;27;19930;-85
2021/10/05 17:13:43;;;;;;;;;;;;;;;;;;5135392;27;19922;-85
2021/10/05 17:16:08;;;;;;;;;;;;;;;;;;5133866;27;20005;-84
2021/10/05 17:18:34;;;;;;;;;;;;;;;;;;5135240;28;20279;-85
2021/10/05 17:21:00;;;;;;;;;;;;;;;;;;5134979;27;19962;-83
2021/10/05 17:23:25;;;;;;;;;;;;;;;;;;5135110;28;19915;-82
2021/10/05 17:25:50;;;;;;;;;;;;;;;;;;5135261;28;19916;-82
2021/10/05 17:28:19;;;;;;;;;;;;;;;;;;5135476;28;19923;-84
2021/10/05 17:30:44;;;;;;;;;;;;;;;;;;5136051;27;20359;-83
2021/10/05 17:33:10;;;;;;;;;;;;;;;;;;5133766;28;19976;-85
2021/10/05 17:35:35;;;;;;;;;;;;;;;;;;5134096;28;19957;-85
2021/10/05 17:38:00;;;;;;;;;;;;;;;;;;5135025;28;19916;-83
2021/10/05 17:40:26;;;;;;;;;;;;;;;;;;5135094;28;20390;-83
2021/10/05 17:42:52;;;;;;;;;;;;;;;;;;5134029;28;19958;-84
2021/10/05 17:45:17;;;;;;;;;;;;;;;;;;5133713;28;19916;-85
2021/10/05 17:47:44;;;;;;;;;;;;;;;;;;5135482;28;19939;-85
2021/10/05 17:50:11;;;;;;;;;;;;;;;;;;5133744;28;19916;-84
2021/10/05 17:52:37;;;;;;;;;;;;;;;;;;5116999;28;19916;-83
2021/10/05 17:55:03;;;;;;;;;;;;;;;;;;5134133;28;20363;-85
2021/10/05 17:57:30;;;;;;;;;;;;;;;;;;5137658;28;19915;-87
2021/10/05 17:59:56;;;;;;;;;;;;;;;;;;5135752;28;20018;-84
2021/10/05 18:02:40;;;;;;;;;;;;;;;;;;5136958;27;19959;-85
2021/10/05 18:05:06;;;;;;;;;;;;;;;;;;5136858;27;19953;-87
2021/10/05 18:07:32;;;;;;;;;;;;;;;;;;5137276;27;19916;-82
2021/10/05 18:09:59;;;;;;;;;;;;;;;;;;5139622;27;20411;-87
2021/10/05 18:12:25;;;;;;;;;;;;;;;;;;5139752;27;20002;-83
2021/10/05 18:14:50;;;;;;;;;;;;;;;;;;5141035;27;20004;-82
2021/10/05 18:17:16;;;;;;;;;;;;;;;;;;5139953;27;19937;-82
2021/10/05 18:19:42;;;;;;;;;;;;;;;;;;5149268;27;19915;-81
2021/10/05 18:22:11;;;;;;;;;;;;;;;;;;5155652;27;19951;-83
2021/10/05 18:24:37;;;;;;;;;;;;;;;;;;5148756;27;19911;-82
2021/10/05 18:27:03;;;;;;;;;;;;;;;;;;5144458;27;19922;-83
2021/10/05 18:29:32;;;;;;;;;;;;;;;;;;5141908;27;19963;-85
2021/10/05 18:31:57;;;;;;;;;;;;;;;;;;5139297;27;20002;-88
2021/10/05 18:34:23;;;;;;;;;;;;;;;;;;5140285;27;19961;-83
2021/10/05 18:36:48;;;;;;;;;;;;;;;;;;5140615;27;19961;-86
2021/10/05 18:39:14;;;;;;;;;;;;;;;;;;5141311;27;20499;-83
2021/10/05 18:41:39;;;;;;;;;;;;;;;;;;5140523;27;19916;-84
2021/10/05 18:44:05;;;;;;;;;;;;;;;;;;5139068;27;19922;-86
2021/10/05 18:46:31;;;;;;;;;;;;;;;;;;5140882;27;19915;-84
2021/10/05 18:48:56;;;;;;;;;;;;;;;;;;5139138;27;20323;-83
2021/10/05 18:51:22;;;;;;;;;;;;;;;;;;5140396;27;19916;-84
2021/10/05 18:53:48;;;;;;;;;;;;;;;;;;5138749;27;19960;-83
2021/10/05 18:56:13;;;;;;;;;;;;;;;;;;5140249;27;20006;-84
2021/10/05 18:58:42;;;;;;;;;;;;;;;;;;5138937;27;19915;-83
2021/10/05 19:01:14;;;;;;;;;;;;;;;;;;5138173;27;20316;-86
2021/10/05 19:03:43;;;;;;;;;;;;;;;;;;5138715;27;19915;-86
2021/10/05 19:06:09;;;;;;;;;;;;;;;;;;5137935;27;19920;-87
2021/10/05 19:08:47;;;;;;;;;;;;;;;;;;5138502;27;19923;-86
2021/10/05 19:11:12;;;;;;;;;;;;;;;;;;5138960;27;20296;-86
2021/10/05 19:13:39;;;;;;;;;;;;;;;;;;5138131;27;19923;-86
2021/10/05 19:16:05;;;;;;;;;;;;;;;;;;5122154;27;19931;-86
2021/10/05 19:18:31;;;;;;;;;;;;;;;;;;5135800;27;19920;-87
2021/10/05 19:20:56;;;;;;;;;;;;;;;;;;5137233;27;19916;-87
2021/10/05 19:23:22;;;;;;;;;;;;;;;;;;5138578;27;20018;-88
2021/10/05 19:25:47;;;;;;;;;;;;;;;;;;5136863;27;20320;-88
2021/10/05 19:28:13;;;;;;;;;;;;;;;;;;5137950;27;19937;-89
2021/10/05 19:30:38;;;;;;;;;;;;;;;;;;5137179;27;19977;-89
2021/10/05 19:33:04;;;;;;;;;;;;;;;;;;5137610;27;19920;-89
2021/10/05 19:35:33;;;;;;;;;;;;;;;;;;5136671;27;20430;-87
2021/10/05 19:37:59;;;;;;;;;;;;;;;;;;5139500;27;19915;-88
2021/10/05 19:40:25;;;;;;;;;;;;;;;;;;5138774;27;20313;-88
2021/10/05 19:43:00;;;;;;;;;;;;;;;;;;5136988;27;20282;-88
2021/10/05 19:45:25;;;;;;;;;;;;;;;;;;5139339;27;19915;-87
2021/10/05 19:47:52;;;;;;;;;;;;;;;;;;5139201;27;19915;-86
2021/10/05 19:50:17;;;;;;;;;;;;;;;;;;5136644;27;19915;-88
2021/10/05 19:52:44;;;;;;;;;;;;;;;;;;5137290;27;19916;-87
2021/10/05 19:55:10;;;;;;;;;;;;;;;;;;5137009;27;19915;-88
2021/10/05 19:57:39;;;;;;;;;;;;;;;;;;5138651;27;19938;-87
2021/10/05 20:00:06;;;;;;;;;;;;;;;;;;5138345;27;20340;-87
2021/10/05 20:02:31;;;;;;;;;;;;;;;;;;5136344;27;19946;-87
2021/10/05 20:04:57;;;;;;;;;;;;;;;;;;5137857;27;19922;-89
2021/10/05 20:07:22;;;;;;;;;;;;;;;;;;5136171;27;19954;-88
2021/10/05 20:09:48;;;;;;;;;;;;;;;;;;5137162;27;19923;-88
2021/10/05 20:12:13;;;;;;;;;;;;;;;;;;5137432;27;20012;-88
2021/10/05 20:14:41;;;;;;;;;;;;;;;;;;5136128;27;19916;-89
2021/10/05 20:17:07;;;;;;;;;;;;;;;;;;5137727;27;19915;-88
2021/10/05 20:19:32;;;;;;;;;;;;;;;;;;5137837;27;19922;-89
2021/10/05 20:21:58;;;;;;;;;;;;;;;;;;5138037;27;20374;-89
2021/10/05 20:24:23;;;;;;;;;;;;;;;;;;5137609;27;20283;-88
2021/10/05 20:26:50;;;;;;;;;;;;;;;;;;5137213;27;19923;-89
2021/10/05 20:29:17;;;;;;;;;;;;;;;;;;5136952;27;19915;-88
2021/10/05 20:31:46;;;;;;;;;;;;;;;;;;5136565;27;19920;-89
2021/10/05 20:34:13;;;;;;;;;;;;;;;;;;5136213;27;19916;-89
2021/10/05 20:36:40;;;;;;;;;;;;;;;;;;5138938;27;19923;-87
2021/10/05 20:39:06;;;;;;;;;;;;;;;;;;5137619;27;19922;-87
2021/10/05 20:41:32;;;;;;;;;;;;;;;;;;5137798;27;19915;-88
2021/10/05 20:43:58;;;;;;;;;;;;;;;;;;5135917;27;20018;-88
2021/10/05 20:46:23;;;;;;;;;;;;;;;;;;5136958;27;19969;-89
2021/10/05 20:48:49;;;;;;;;;;;;;;;;;;5137439;27;20386;-89
2021/10/05 20:51:15;;;;;;;;;;;;;;;;;;5137242;27;19915;-89
2021/10/05 20:53:41;;;;;;;;;;;;;;;;;;5135768;27;19961;-89
2021/10/05 20:56:07;;;;;;;;;;;;;;;;;;5134142;27;20446;-89
2021/10/05 20:58:33;;;;;;;;;;;;;;;;;;5135269;27;19951;-88
2021/10/05 21:00:58;;;;;;;;;;;;;;;;;;5135333;27;19916;-89
2021/10/05 21:03:23;;;;;;;;;;;;;;;;;;5135196;27;19919;-89
2021/10/05 21:05:49;;;;;;;;;;;;;;;;;;5135197;27;19915;-89
2021/10/05 21:08:15;;;;;;;;;;;;;;;;;;5135305;27;20285;-89
2021/10/05 21:10:40;;;;;;;;;;;;;;;;;;5133862;27;20286;-89
2021/10/05 21:13:05;;;;;;;;;;;;;;;;;;5135081;27;19947;-88
2021/10/05 21:15:31;;;;;;;;;;;;;;;;;;5135278;27;19991;-88
2021/10/05 21:17:56;;;;;;;;;;;;;;;;;;5134968;27;19923;-88
2021/10/05 21:20:22;;;;;;;;;;;;;;;;;;5133644;28;19916;-88
2021/10/05 21:22:47;;;;;;;;;;;;;;;;;;5134976;27;19916;-89
2021/10/05 21:25:13;;;;;;;;;;;;;;;;;;5133764;28;19916;-88
2021/10/05 21:27:38;;;;;;;;;;;;;;;;;;5133703;28;20420;-89
2021/10/05 21:30:04;;;;;;;;;;;;;;;;;;5134715;28;20335;-88
2021/10/05 21:32:30;;;;;;;;;;;;;;;;;;5135047;27;19916;-89
2021/10/05 21:34:56;;;;;;;;;;;;;;;;;;5134911;27;19950;-89
2021/10/05 21:37:22;;;;;;;;;;;;;;;;;;5134892;27;19916;-89
2021/10/05 21:39:47;;;;;;;;;;;;;;;;;;5134763;28;19980;-89
2021/10/05 21:42:13;;;;;;;;;;;;;;;;;;5136735;27;20395;-88
2021/10/05 21:44:38;;;;;;;;;;;;;;;;;;5139022;27;20006;-89
2021/10/05 21:47:04;;;;;;;;;;;;;;;;;;5137940;27;20057;-89
2021/10/05 21:49:29;;;;;;;;;;;;;;;;;;5138876;27;20290;-88
2021/10/05 21:51:55;;;;;;;;;;;;;;;;;;5138885;27;19915;-89
2021/10/05 21:54:20;;;;;;;;;;;;;;;;;;5137587;27;19954;-89
2021/10/05 21:56:47;;;;;;;;;;;;;;;;;;5138803;27;19916;-89
2021/10/05 21:59:12;;;;;;;;;;;;;;;;;;5138726;27;19920;-89
2021/10/05 22:01:38;;;;;;;;;;;;;;;;;;5138574;27;19998;-88
2021/10/05 22:04:04;;;;;;;;;;;;;;;;;;5138885;27;19920;-89
2021/10/05 22:06:31;;;;;;;;;;;;;;;;;;5137236;27;19919;-90
2021/10/05 22:08:56;;;;;;;;;;;;;;;;;;5139286;27;20379;-89
2021/10/05 22:11:21;;;;;;;;;;;;;;;;;;5138415;27;19923;-88
2021/10/05 22:13:47;;;;;;;;;;;;;;;;;;5138670;27;19916;-90
2021/10/05 22:16:12;;;;;;;;;;;;;;;;;;5138474;27;19922;-89
2021/10/05 22:18:38;;;;;;;;;;;;;;;;;;5138347;27;19915;-89
2021/10/05 22:21:04;;;;;;;;;;;;;;;;;;5138309;27;19919;-89
2021/10/05 22:23:30;;;;;;;;;;;;;;;;;;5137053;27;20362;-88
2021/10/05 22:25:55;;;;;;;;;;;;;;;;;;5138137;27;19916;-89
2021/10/05 22:28:21;;;;;;;;;;;;;;;;;;5138657;27;19915;-88
2021/10/05 22:30:46;;;;;;;;;;;;;;;;;;5137883;27;19920;-89
2021/10/05 22:33:12;;;;;;;;;;;;;;;;;;5138310;27;20264;-89
2021/10/05 22:35:38;;;;;;;;;;;;;;;;;;5136811;27;19912;-89
2021/10/05 22:38:05;;;;;;;;;;;;;;;;;;5136690;27;20613;-89
2021/10/05 22:40:30;;;;;;;;;;;;;;;;;;5137869;27;19916;-89
2021/10/05 22:42:56;;;;;;;;;;;;;;;;;;5138129;27;20010;-89
2021/10/05 22:45:22;;;;;;;;;;;;;;;;;;5138120;27;20337;-89
2021/10/05 22:47:48;;;;;;;;;;;;;;;;;;5137900;27;20290;-89
2021/10/05 22:50:15;;;;;;;;;;;;;;;;;;5136558;27;20285;-89
2021/10/05 22:52:40;;;;;;;;;;;;;;;;;;5138123;27;19922;-89
2021/10/05 22:55:06;;;;;;;;;;;;;;;;;;5141215;27;20293;-89
2021/10/05 22:57:32;;;;;;;;;;;;;;;;;;5141607;27;19922;-88
2021/10/05 22:59:58;;;;;;;;;;;;;;;;;;5151141;27;19915;-89
2021/10/05 23:02:24;;;;;;;;;;;;;;;;;;5150848;27;20363;-89
2021/10/05 23:04:50;;;;;;;;;;;;;;;;;;5137974;27;19960;-88
2021/10/05 23:07:15;;;;;;;;;;;;;;;;;;5137503;27;20017;-88
2021/10/05 23:09:41;;;;;;;;;;;;;;;;;;5138459;27;20317;-89
2021/10/05 23:12:08;;;;;;;;;;;;;;;;;;5137770;27;19962;-89
2021/10/05 23:14:37;;;;;;;;;;;;;;;;;;5136297;27;19966;-88
2021/10/05 23:17:03;;;;;;;;;;;;;;;;;;5137558;27;19919;-89
2021/10/05 23:19:28;;;;;;;;;;;;;;;;;;5135873;27;20001;-87
2021/10/05 23:21:54;;;;;;;;;;;;;;;;;;5137145;27;20468;-86
2021/10/05 23:24:19;;;;;;;;;;;;;;;;;;5137159;27;20363;-87
2021/10/05 23:26:44;;;;;;;;;;;;;;;;;;5135677;27;20387;-87
2021/10/05 23:29:10;;;;;;;;;;;;;;;;;;5137046;27;19921;-87
2021/10/05 23:31:35;;;;;;;;;;;;;;;;;;5136829;27;20274;-87
2021/10/05 23:34:01;;;;;;;;;;;;;;;;;;5136771;27;19915;-87
2021/10/05 23:36:26;;;;;;;;;;;;;;;;;;5136845;27;19915;-87
2021/10/05 23:38:52;;;;;;;;;;;;;;;;;;5135374;27;19915;-87
2021/10/05 23:41:17;;;;;;;;;;;;;;;;;;5136630;27;19915;-87
2021/10/05 23:43:43;;;;;;;;;;;;;;;;;;5135375;27;19919;-88
2021/10/05 23:46:08;;;;;;;;;;;;;;;;;;5136562;27;19915;-88
2021/10/05 23:48:34;;;;;;;;;;;;;;;;;;5136621;27;19919;-88
2021/10/05 23:50:59;;;;;;;;;;;;;;;;;;5135129;27;19922;-87
2021/10/05 23:53:24;;;;;;;;;;;;;;;;;;5135240;27;20010;-87
2021/10/05 23:55:50;;;;;;;;;;;;;;;;;;5136368;27;20290;-88
2021/10/05 23:58:15;;;;;;;;;;;;;;;;;;5134990;27;19922;-89
